sensor_id;sensor_type;location;lat;lon;timestamp;pressure;altitude;pressure_sealevel;temperature;humidity
67052;BME280;53957;47.222;18.670;2022-08-19T04:39:17;99652.88;;;20.49;81.04
67052;BME280;53957;47.222;18.670;2022-08-19T04:42:20;99661.31;;;20.43;81.98
67052;BME280;53957;47.222;18.670;2022-08-19T04:45:43;99675.00;;;20.51;82.75
67052;BME280;53957;47.222;18.670;2022-08-19T04:48:47;99673.63;;;20.64;83.38
67052;BME280;53957;47.222;18.670;2022-08-19T04:51:52;99671.91;;;20.52;84.39
67052;BME280;53957;47.222;18.670;2022-08-19T04:54:57;99677.97;;;20.96;81.37
67052;BME280;53957;47.222;18.670;2022-08-19T04:57:59;99678.97;;;21.11;80.52
67052;BME280;53957;47.222;18.670;2022-08-19T05:01:03;99674.72;;;21.13;80.49
67052;BME280;53957;47.222;18.670;2022-08-19T05:04:06;99668.69;;;21.27;80.39
67052;BME280;53957;47.222;18.670;2022-08-19T05:07:09;99670.91;;;21.48;80.10
67052;BME280;53957;47.222;18.670;2022-08-19T05:10:12;99671.91;;;21.67;79.69
67052;BME280;53957;47.222;18.670;2022-08-19T05:13:17;99671.66;;;21.79;80.86
67052;BME280;53957;47.222;18.670;2022-08-19T05:16:21;99672.66;;;22.05;79.82
67052;BME280;53957;47.222;18.670;2022-08-19T05:19:24;99671.88;;;22.46;75.62
67052;BME280;53957;47.222;18.670;2022-08-19T05:22:47;99667.47;;;22.86;73.69
67052;BME280;53957;47.222;18.670;2022-08-19T05:25:51;99665.59;;;22.97;74.07
67052;BME280;53957;47.222;18.670;2022-08-19T05:28:55;99651.00;;;23.31;71.52
67052;BME280;53957;47.222;18.670;2022-08-19T05:31:58;99658.91;;;23.65;68.93
67052;BME280;53957;47.222;18.670;2022-08-19T05:35:03;99650.00;;;23.90;68.08
67052;BME280;53957;47.222;18.670;2022-08-19T05:38:07;99649.25;;;24.22;65.58
67052;BME280;53957;47.222;18.670;2022-08-19T05:41:12;99664.81;;;24.32;66.09
67052;BME280;53957;47.222;18.670;2022-08-19T05:44:16;99665.56;;;24.62;63.24
67052;BME280;53957;47.222;18.670;2022-08-19T05:47:19;99660.91;;;24.69;64.36
67052;BME280;53957;47.222;18.670;2022-08-19T05:50:23;99664.75;;;24.94;61.73
67052;BME280;53957;47.222;18.670;2022-08-19T05:53:25;99660.84;;;25.02;62.37
67052;BME280;53957;47.222;18.670;2022-08-19T05:56:28;99661.97;;;25.19;60.74
67052;BME280;53957;47.222;18.670;2022-08-19T05:59:33;99653.34;;;25.28;62.39
67052;BME280;53957;47.222;18.670;2022-08-19T06:02:41;99649.03;;;25.37;60.80
67052;BME280;53957;47.222;18.670;2022-08-19T06:05:44;99638.81;;;25.56;59.11
67052;BME280;53957;47.222;18.670;2022-08-19T06:08:53;99634.13;;;25.53;60.48
67052;BME280;53957;47.222;18.670;2022-08-19T06:11:58;99632.56;;;25.52;61.16
67052;BME280;53957;47.222;18.670;2022-08-19T06:15:08;99634.38;;;25.77;58.20
67052;BME280;53957;47.222;18.670;2022-08-19T06:18:14;99630.88;;;25.76;58.67
67052;BME280;53957;47.222;18.670;2022-08-19T06:21:22;99641.78;;;25.76;58.05
67052;BME280;53957;47.222;18.670;2022-08-19T06:24:27;99638.97;;;25.91;57.89
67052;BME280;53957;47.222;18.670;2022-08-19T06:27:30;99651.75;;;26.04;57.55
67052;BME280;53957;47.222;18.670;2022-08-19T06:30:35;99646.41;;;25.83;59.25
67052;BME280;53957;47.222;18.670;2022-08-19T06:33:39;99655.38;;;26.40;56.90
67052;BME280;53957;47.222;18.670;2022-08-19T06:36:45;99663.22;;;26.38;56.33
67052;BME280;53957;47.222;18.670;2022-08-19T06:39:49;99678.69;;;26.55;55.99
67052;BME280;53957;47.222;18.670;2022-08-19T06:42:53;99681.19;;;26.39;57.70
67052;BME280;53957;47.222;18.670;2022-08-19T06:45:57;99687.66;;;26.97;54.23
67052;BME280;53957;47.222;18.670;2022-08-19T06:49:03;99689.25;;;27.29;54.74
67052;BME280;53957;47.222;18.670;2022-08-19T06:52:07;99683.66;;;27.06;55.64
67052;BME280;53957;47.222;18.670;2022-08-19T06:55:10;99685.34;;;28.16;53.43
67052;BME280;53957;47.222;18.670;2022-08-19T06:58:13;99685.59;;;28.25;50.65
67052;BME280;53957;47.222;18.670;2022-08-19T07:01:16;99685.81;;;28.35;50.27
67052;BME280;53957;47.222;18.670;2022-08-19T07:04:23;99685.00;;;28.38;49.96
67052;BME280;53957;47.222;18.670;2022-08-19T07:07:29;99672.09;;;28.58;50.82
67052;BME280;53957;47.222;18.670;2022-08-19T07:10:35;99674.97;;;28.75;50.01
67052;BME280;53957;47.222;18.670;2022-08-19T07:13:45;99675.91;;;28.41;49.84
67052;BME280;53957;47.222;18.670;2022-08-19T07:16:49;99687.66;;;28.65;49.95
67052;BME280;53957;47.222;18.670;2022-08-19T07:19:54;99685.09;;;29.18;49.09
67052;BME280;53957;47.222;18.670;2022-08-19T07:22:57;99690.81;;;28.87;50.85
67052;BME280;53957;47.222;18.670;2022-08-19T07:26:25;99693.63;;;29.04;48.91
67052;BME280;53957;47.222;18.670;2022-08-19T07:29:31;99691.19;;;29.30;48.06
67052;BME280;53957;47.222;18.670;2022-08-19T07:32:37;99689.19;;;29.67;46.47
67052;BME280;53957;47.222;18.670;2022-08-19T07:35:40;99699.41;;;28.89;48.44
67052;BME280;53957;47.222;18.670;2022-08-19T07:38:47;99690.25;;;28.76;48.73
67052;BME280;53957;47.222;18.670;2022-08-19T07:41:51;99701.16;;;29.00;48.35
67052;BME280;53957;47.222;18.670;2022-08-19T07:44:54;99706.47;;;29.31;47.53
67052;BME280;53957;47.222;18.670;2022-08-19T07:48:37;99701.44;;;29.46;50.33
67052;BME280;53957;47.222;18.670;2022-08-19T07:51:48;99702.94;;;29.67;46.93
67052;BME280;53957;47.222;18.670;2022-08-19T07:55:12;99717.06;;;29.85;47.75
67052;BME280;53957;47.222;18.670;2022-08-19T07:58:40;99715.81;;;29.90;47.62
67052;BME280;53957;47.222;18.670;2022-08-19T08:01:44;99712.47;;;29.99;46.60
67052;BME280;53957;47.222;18.670;2022-08-19T08:04:47;99706.28;;;29.95;45.99
67052;BME280;53957;47.222;18.670;2022-08-19T08:08:09;99704.00;;;29.36;47.09
67052;BME280;53957;47.222;18.670;2022-08-19T08:11:55;99697.34;;;30.07;46.16
67052;BME280;53957;47.222;18.670;2022-08-19T08:15:26;99697.59;;;30.29;45.96
67052;BME280;53957;47.222;18.670;2022-08-19T08:18:31;99683.84;;;30.29;45.50
67052;BME280;53957;47.222;18.670;2022-08-19T08:21:49;99681.41;;;30.48;46.49
67052;BME280;53957;47.222;18.670;2022-08-19T08:24:52;99685.25;;;30.67;43.98
67052;BME280;53957;47.222;18.670;2022-08-19T08:27:55;99688.63;;;30.75;43.89
67052;BME280;53957;47.222;18.670;2022-08-19T08:30:59;99678.44;;;31.01;44.05
67052;BME280;53957;47.222;18.670;2022-08-19T08:34:02;99682.78;;;31.15;44.87
67052;BME280;53957;47.222;18.670;2022-08-19T08:37:05;99694.88;;;31.60;42.13
67052;BME280;53957;47.222;18.670;2022-08-19T08:40:30;99690.66;;;31.00;42.11
67052;BME280;53957;47.222;18.670;2022-08-19T08:43:37;99689.25;;;31.63;40.48
67052;BME280;53957;47.222;18.670;2022-08-19T08:47:03;99685.19;;;31.55;41.01
67052;BME280;53957;47.222;18.670;2022-08-19T08:50:39;99676.69;;;31.62;40.14
67052;BME280;53957;47.222;18.670;2022-08-19T08:53:44;99674.16;;;31.68;40.38
67052;BME280;53957;47.222;18.670;2022-08-19T08:56:51;99675.38;;;31.80;39.76
67052;BME280;53957;47.222;18.670;2022-08-19T08:59:57;99665.78;;;31.85;42.05
67052;BME280;53957;47.222;18.670;2022-08-19T09:03:09;99668.22;;;31.83;40.73
67052;BME280;53957;47.222;18.670;2022-08-19T09:09:35;99648.03;;;32.34;38.75
67052;BME280;53957;47.222;18.670;2022-08-19T09:16:13;99648.97;;;32.18;38.93
67052;BME280;53957;47.222;18.670;2022-08-19T09:19:25;99636.97;;;32.47;38.50
67052;BME280;53957;47.222;18.670;2022-08-19T09:22:31;99633.75;;;32.70;37.63
67052;BME280;53957;47.222;18.670;2022-08-19T09:25:34;99634.22;;;32.69;37.52
67052;BME280;53957;47.222;18.670;2022-08-19T09:28:37;99630.50;;;33.07;36.56
67052;BME280;53957;47.222;18.670;2022-08-19T09:31:46;99619.09;;;33.05;36.17
67052;BME280;53957;47.222;18.670;2022-08-19T09:34:50;99617.47;;;33.48;36.50
67052;BME280;53957;47.222;18.670;2022-08-19T09:37:53;99630.94;;;33.05;35.83
67052;BME280;53957;47.222;18.670;2022-08-19T09:41:06;99630.34;;;33.33;35.41
67052;BME280;53957;47.222;18.670;2022-08-19T09:44:09;99631.91;;;33.93;33.84
67052;BME280;53957;47.222;18.670;2022-08-19T09:47:14;99645.22;;;33.35;35.07
67052;BME280;53957;47.222;18.670;2022-08-19T09:50:22;99637.69;;;33.77;34.80
67052;BME280;53957;47.222;18.670;2022-08-19T09:53:26;99639.84;;;33.82;35.61
67052;BME280;53957;47.222;18.670;2022-08-19T09:56:30;99636.13;;;33.76;34.75
67052;BME280;53957;47.222;18.670;2022-08-19T09:59:35;99624.16;;;33.79;33.79
67052;BME280;53957;47.222;18.670;2022-08-19T10:03:18;99621.47;;;34.16;33.38
67052;BME280;53957;47.222;18.670;2022-08-19T10:06:23;99628.91;;;34.38;32.85
67052;BME280;53957;47.222;18.670;2022-08-19T10:09:46;99616.59;;;34.48;33.55
67052;BME280;53957;47.222;18.670;2022-08-19T10:13:10;99620.09;;;34.58;33.09
67052;BME280;53957;47.222;18.670;2022-08-19T10:16:19;99614.41;;;34.06;32.67
67052;BME280;53957;47.222;18.670;2022-08-19T10:19:31;99618.75;;;34.44;32.62
67052;BME280;53957;47.222;18.670;2022-08-19T10:22:39;99617.16;;;34.80;33.03
67052;BME280;53957;47.222;18.670;2022-08-19T10:25:43;99608.56;;;34.69;33.51
67052;BME280;53957;47.222;18.670;2022-08-19T10:29:05;99604.97;;;34.96;32.59
67052;BME280;53957;47.222;18.670;2022-08-19T10:32:13;99609.78;;;34.67;32.43
67052;BME280;53957;47.222;18.670;2022-08-19T10:35:16;99604.25;;;35.29;31.08
67052;BME280;53957;47.222;18.670;2022-08-19T10:38:30;99605.97;;;35.17;32.13
67052;BME280;53957;47.222;18.670;2022-08-19T10:41:37;99600.19;;;34.96;31.62
67052;BME280;53957;47.222;18.670;2022-08-19T10:44:40;99611.03;;;35.19;30.00
67052;BME280;53957;47.222;18.670;2022-08-19T10:48:03;99602.78;;;35.09;30.61
67052;BME280;53957;47.222;18.670;2022-08-19T10:51:07;99603.34;;;35.81;30.98
67052;BME280;53957;47.222;18.670;2022-08-19T10:54:29;99607.91;;;35.35;30.16
67052;BME280;53957;47.222;18.670;2022-08-19T10:58:12;99607.13;;;34.82;30.42
67052;BME280;53957;47.222;18.670;2022-08-19T11:01:16;99608.19;;;35.46;29.60
67052;BME280;53957;47.222;18.670;2022-08-19T11:04:19;99607.38;;;35.55;29.47
67052;BME280;53957;47.222;18.670;2022-08-19T11:07:31;99610.84;;;35.65;30.26
67052;BME280;53957;47.222;18.670;2022-08-19T11:10:34;99605.53;;;35.52;29.78
67052;BME280;53957;47.222;18.670;2022-08-19T11:13:39;99601.41;;;35.72;28.93
67052;BME280;53957;47.222;18.670;2022-08-19T11:16:43;99597.25;;;35.34;28.84
67052;BME280;53957;47.222;18.670;2022-08-19T11:19:45;99600.13;;;35.82;29.64
67052;BME280;53957;47.222;18.670;2022-08-19T11:22:52;99593.97;;;35.78;29.86
67052;BME280;53957;47.222;18.670;2022-08-19T11:25:56;99593.78;;;35.82;29.48
67052;BME280;53957;47.222;18.670;2022-08-19T11:29:00;99584.59;;;36.39;28.97
67052;BME280;53957;47.222;18.670;2022-08-19T11:32:06;99586.12;;;36.40;28.18
67052;BME280;53957;47.222;18.670;2022-08-19T11:35:09;99582.75;;;35.97;28.38
67052;BME280;53957;47.222;18.670;2022-08-19T11:38:13;99575.94;;;36.22;28.63
67052;BME280;53957;47.222;18.670;2022-08-19T11:41:19;99578.88;;;36.18;29.24
67052;BME280;53957;47.222;18.670;2022-08-19T11:44:22;99594.00;;;36.17;28.68
67052;BME280;53957;47.222;18.670;2022-08-19T11:47:25;99584.59;;;35.51;27.13
67052;BME280;53957;47.222;18.670;2022-08-19T11:50:28;99589.72;;;35.68;27.66
67052;BME280;53957;47.222;18.670;2022-08-19T12:41:11;99601.41;;;32.49;40.58
67052;BME280;53957;47.222;18.670;2022-08-19T12:44:14;99614.88;;;32.24;41.62
67052;BME280;53957;47.222;18.670;2022-08-19T12:47:21;99622.63;;;32.04;42.15
67052;BME280;53957;47.222;18.670;2022-08-19T12:50:24;99620.31;;;32.37;41.83
67052;BME280;53957;47.222;18.670;2022-08-19T12:53:27;99623.19;;;33.22;40.91
67052;BME280;53957;47.222;18.670;2022-08-19T12:56:31;99641.16;;;33.27;39.99
67052;BME280;53957;47.222;18.670;2022-08-19T12:59:36;99621.84;;;33.68;40.06
67052;BME280;53957;47.222;18.670;2022-08-19T13:02:43;99625.66;;;33.61;37.78
67052;BME280;53957;47.222;18.670;2022-08-19T13:05:50;99629.38;;;33.67;37.39
67052;BME280;53957;47.222;18.670;2022-08-19T13:08:54;99628.66;;;33.45;36.58
67052;BME280;53957;47.222;18.670;2022-08-19T13:12:02;99625.78;;;33.17;36.48
67052;BME280;53957;47.222;18.670;2022-08-19T13:15:06;99630.28;;;33.01;37.06
67052;BME280;53957;47.222;18.670;2022-08-19T13:18:13;99635.81;;;32.57;37.26
67052;BME280;53957;47.222;18.670;2022-08-19T13:21:16;99637.69;;;32.25;37.87
67052;BME280;53957;47.222;18.670;2022-08-19T13:24:22;99644.47;;;32.24;36.47
67052;BME280;53957;47.222;18.670;2022-08-19T13:27:31;99645.16;;;32.37;36.08
67052;BME280;53957;47.222;18.670;2022-08-19T13:30:34;99661.97;;;32.17;34.44
67052;BME280;53957;47.222;18.670;2022-08-19T13:33:55;99660.72;;;31.83;33.55
67052;BME280;53957;47.222;18.670;2022-08-19T13:36:59;99660.06;;;31.92;33.67
67052;BME280;53957;47.222;18.670;2022-08-19T13:40:01;99665.44;;;31.95;33.39
67052;BME280;53957;47.222;18.670;2022-08-19T13:43:07;99659.59;;;31.80;33.25
67052;BME280;53957;47.222;18.670;2022-08-19T13:46:24;99649.13;;;31.62;33.57
67052;BME280;53957;47.222;18.670;2022-08-19T13:49:28;99649.03;;;31.66;33.37
67052;BME280;53957;47.222;18.670;2022-08-19T13:52:33;99634.44;;;32.04;33.72
67052;BME280;53957;47.222;18.670;2022-08-19T13:55:38;99636.81;;;32.28;33.48
67052;BME280;53957;47.222;18.670;2022-08-19T13:58:41;99635.37;;;32.58;34.00
67052;BME280;53957;47.222;18.670;2022-08-19T14:01:44;99621.88;;;32.60;33.25
67052;BME280;53957;47.222;18.670;2022-08-19T14:04:47;99615.13;;;32.04;34.05
67052;BME280;53957;47.222;18.670;2022-08-19T14:07:50;99604.63;;;32.12;34.21
67052;BME280;53957;47.222;18.670;2022-08-19T14:10:54;99605.94;;;32.07;32.75
67052;BME280;53957;47.222;18.670;2022-08-19T14:13:57;99601.56;;;31.97;33.52
67052;BME280;53957;47.222;18.670;2022-08-19T14:17:00;99592.44;;;31.87;34.17
67052;BME280;53957;47.222;18.670;2022-08-19T14:20:05;99598.00;;;31.48;35.00
67052;BME280;53957;47.222;18.670;2022-08-19T14:23:12;99608.69;;;31.46;34.97
67052;BME280;53957;47.222;18.670;2022-08-19T14:26:17;99614.84;;;31.51;33.45
67052;BME280;53957;47.222;18.670;2022-08-19T14:29:21;99610.66;;;31.33;35.62
67052;BME280;53957;47.222;18.670;2022-08-19T14:32:24;99606.34;;;31.32;33.89
67052;BME280;53957;47.222;18.670;2022-08-19T14:35:31;99613.06;;;31.31;33.91
67052;BME280;53957;47.222;18.670;2022-08-19T17:58:24;99623.97;;;20.56;100.00
67052;BME280;53957;47.222;18.670;2022-08-19T18:01:28;99684.50;;;20.41;100.00
67052;BME280;53957;47.222;18.670;2022-08-19T18:04:51;99747.75;;;20.52;100.00
67052;BME280;53957;47.222;18.670;2022-08-19T18:07:55;99674.13;;;20.47;100.00
67052;BME280;53957;47.222;18.670;2022-08-19T18:10:59;99681.37;;;20.39;100.00
67052;BME280;53957;47.222;18.670;2022-08-19T18:14:02;99719.72;;;20.41;100.00
67052;BME280;53957;47.222;18.670;2022-08-19T18:17:08;99676.06;;;20.46;100.00
67052;BME280;53957;47.222;18.670;2022-08-19T18:20:14;99678.91;;;21.07;100.00
67052;BME280;53957;47.222;18.670;2022-08-19T18:23:21;99672.22;;;21.28;100.00
67052;BME280;53957;47.222;18.670;2022-08-19T18:26:44;99675.06;;;21.08;100.00
67052;BME280;53957;47.222;18.670;2022-08-19T18:29:47;99700.66;;;21.11;100.00
67052;BME280;53957;47.222;18.670;2022-08-19T18:32:51;99708.94;;;20.95;100.00
67052;BME280;53957;47.222;18.670;2022-08-19T18:35:55;99701.91;;;20.67;100.00
67052;BME280;53957;47.222;18.670;2022-08-19T18:38:58;99687.53;;;20.86;100.00
67052;BME280;53957;47.222;18.670;2022-08-19T18:42:20;99688.41;;;20.70;100.00
67052;BME280;53957;47.222;18.670;2022-08-19T18:45:42;99660.38;;;20.59;100.00
67052;BME280;53957;47.222;18.670;2022-08-19T18:49:04;99651.88;;;20.60;100.00
67052;BME280;53957;47.222;18.670;2022-08-19T18:52:07;99658.25;;;20.45;100.00
67052;BME280;53957;47.222;18.670;2022-08-19T18:55:10;99678.94;;;20.57;100.00
67052;BME280;53957;47.222;18.670;2022-08-19T18:58:13;99663.78;;;20.52;100.00
67052;BME280;53957;47.222;18.670;2022-08-19T19:01:20;99664.03;;;20.43;100.00
67052;BME280;53957;47.222;18.670;2022-08-19T19:04:30;99646.88;;;20.36;100.00
67052;BME280;53957;47.222;18.670;2022-08-19T19:07:37;99655.00;;;20.36;100.00
67052;BME280;53957;47.222;18.670;2022-08-19T19:10:41;99665.44;;;20.34;100.00
67052;BME280;53957;47.222;18.670;2022-08-19T19:13:45;99637.41;;;20.22;100.00
67052;BME280;53957;47.222;18.670;2022-08-19T19:16:48;99645.91;;;20.24;100.00
67052;BME280;53957;47.222;18.670;2022-08-19T19:19:52;99652.91;;;20.25;100.00
67052;BME280;53957;47.222;18.670;2022-08-19T19:22:55;99657.63;;;20.29;100.00
67052;BME280;53957;47.222;18.670;2022-08-19T19:26:01;99674.25;;;20.31;100.00
67052;BME280;53957;47.222;18.670;2022-08-19T19:29:04;99676.84;;;20.23;100.00
67052;BME280;53957;47.222;18.670;2022-08-19T19:32:10;99648.31;;;20.30;100.00
67052;BME280;53957;47.222;18.670;2022-08-19T19:35:18;99658.31;;;20.25;100.00
67052;BME280;53957;47.222;18.670;2022-08-19T19:38:21;99673.78;;;20.25;100.00
67052;BME280;53957;47.222;18.670;2022-08-19T19:41:24;99693.22;;;20.31;100.00
67052;BME280;53957;47.222;18.670;2022-08-19T19:44:28;99714.94;;;20.34;100.00
67052;BME280;53957;47.222;18.670;2022-08-19T19:47:34;99738.69;;;20.41;100.00
67052;BME280;53957;47.222;18.670;2022-08-19T19:50:37;99847.16;;;20.09;100.00
67052;BME280;53957;47.222;18.670;2022-08-19T19:53:40;99969.44;;;20.31;100.00
67052;BME280;53957;47.222;18.670;2022-08-19T19:56:43;99963.19;;;20.46;100.00
